Time;durP1;ratioP1;P1;durP2;ratioP2;P2;SDS_P1;SDS_P2;PMS_P1;PMS_P2;Temp;Humidity;BMP_temperature;BMP_pressure;BME280_temperature;BME280_humidity;BME280_pressure;Samples;Min_cycle;Max_cycle;Signal;HPM_P1;HPM_P2
2022/08/20 00:00:37;;;;;;;8.70;7.90;;;;;;;26.36;55.31;94473.16;4915018;29;20464;-84
2022/08/20 00:03:07;;;;;;;12.63;8.70;;;;;;;26.37;55.86;94473.97;4916846;29;20779;-84
2022/08/20 00:05:38;;;;;;;11.20;9.00;;;;;;;26.32;55.31;94474.66;4917214;29;20448;-83
2022/08/20 00:08:06;;;;;;;8.40;7.70;;;;;;;26.30;55.50;94475.94;4916996;29;20452;-83
2022/08/20 00:10:35;;;;;;;9.63;8.37;;;;;;;26.33;56.10;94484.38;4916788;29;20471;-84
2022/08/20 00:13:04;;;;;;;11.47;8.90;;;;;;;26.39;55.79;94485.31;4916791;29;20458;-83
2022/08/20 00:15:34;;;;;;;8.70;8.00;;;;;;;26.36;55.45;94483.94;4916947;29;20500;-84
2022/08/20 00:18:02;;;;;;;9.53;8.63;;;;;;;26.53;56.58;94487.50;4916997;29;20459;-84
2022/08/20 00:20:33;;;;;;;10.37;8.30;;;;;;;26.50;55.30;94482.59;4916682;29;20448;-84
2022/08/20 00:23:00;;;;;;;8.43;7.83;;;;;;;26.46;55.31;94476.06;4916912;29;20448;-82
2022/08/20 00:25:28;;;;;;;9.00;8.20;;;;;;;26.47;55.54;94480.38;4916703;29;20463;-82
2022/08/20 00:27:56;;;;;;;7.80;7.20;;;;;;;26.49;56.20;94480.13;4916460;29;20448;-84
2022/08/20 00:30:25;;;;;;;12.07;8.80;;;;;;;26.50;55.62;94477.22;4916992;29;20455;-84
2022/08/20 00:32:54;;;;;;;8.80;7.87;;;;;;;26.48;56.03;94478.50;4916512;29;20452;-83
2022/08/20 00:35:26;;;;;;;9.20;8.30;;;;;;;26.40;56.18;94473.50;4916563;29;20516;-84
2022/08/20 00:37:53;;;;;;;9.30;8.43;;;;;;;26.32;56.09;94471.97;4916648;29;20464;-84
2022/08/20 00:40:24;;;;;;;9.20;8.30;;;;;;;26.19;56.93;94469.53;4916696;29;20460;-84
2022/08/20 00:42:54;;;;;;;9.93;8.93;;;;;;;26.17;57.00;94475.16;4916417;29;20459;-83
2022/08/20 00:45:21;;;;;;;9.37;8.43;;;;;;;26.21;56.95;94470.13;4916867;29;20511;-84
2022/08/20 00:47:49;;;;;;;11.17;9.40;;;;;;;25.99;57.36;94474.47;4917950;29;20463;-84
2022/08/20 00:50:21;;;;;;;12.50;8.23;;;;;;;26.09;57.16;94480.91;4902409;29;20980;-84
2022/08/20 00:52:51;;;;;;;9.43;8.30;;;;;;;26.21;58.18;94481.69;4920174;29;20467;-84
2022/08/20 00:55:20;;;;;;;8.57;7.80;;;;;;;26.24;57.40;94478.53;4920131;29;20835;-84
2022/08/20 00:57:53;;;;;;;10.60;7.87;;;;;;;26.25;57.62;94472.09;4919817;29;20901;-84
2022/08/20 01:00:25;;;;;;;8.90;8.00;;;;;;;26.32;57.86;94473.84;4920187;29;20581;-84
2022/08/20 01:02:54;;;;;;;9.87;8.87;;;;;;;26.27;57.69;94463.78;4919891;29;20455;-84
2022/08/20 01:05:22;;;;;;;9.27;8.47;;;;;;;26.38;59.94;94462.97;4902119;29;20444;-83
2022/08/20 01:07:52;;;;;;;10.13;8.70;;;;;;;26.40;58.32;94460.88;4919986;29;20951;-84
2022/08/20 01:10:21;;;;;;;14.00;8.83;;;;;;;26.42;58.15;94461.44;4917936;29;20444;-85
2022/08/20 01:12:49;;;;;;;10.60;8.53;;;;;;;26.44;57.76;94462.03;4919956;29;20451;-83
2022/08/20 01:15:18;;;;;;;9.47;8.67;;;;;;;26.39;57.21;94459.22;4919960;29;20456;-83
2022/08/20 01:17:48;;;;;;;9.50;8.60;;;;;;;26.22;57.13;94455.59;4919913;29;20495;-85
2022/08/20 01:20:19;;;;;;;10.47;8.97;;;;;;;26.05;57.42;94455.53;4919702;29;20463;-84
2022/08/20 01:25:51;;;;;;;9.60;8.63;;;;;;;26.09;57.94;94439.75;4919513;29;20439;-84
2022/08/20 01:28:22;;;;;;;8.30;7.53;;;;;;;26.16;59.42;94451.19;4919491;29;20456;-84
2022/08/20 01:30:49;;;;;;;10.07;7.80;;;;;;;26.17;59.93;94442.06;4919408;29;20451;-84
2022/08/20 01:33:17;;;;;;;10.03;8.80;;;;;;;26.22;58.53;94455.59;4919309;29;20872;-85
2022/08/20 01:35:44;;;;;;;8.60;7.67;;;;;;;26.22;58.09;94444.84;4919113;29;20456;-83
2022/08/20 01:38:12;;;;;;;9.70;8.27;;;;;;;26.21;58.08;94448.59;4917309;29;20492;-84
2022/08/20 01:40:55;;;;;;;10.47;8.17;;;;;;;26.28;57.98;94448.44;4919156;29;20786;-81
2022/08/20 01:43:23;;;;;;;10.90;8.80;;;;;;;26.11;58.09;94443.00;4917245;29;20460;-85
2022/08/20 01:45:51;;;;;;;9.57;8.60;;;;;;;26.07;57.76;94439.16;4901625;29;20472;-85
2022/08/20 01:48:19;;;;;;;12.17;8.87;;;;;;;26.10;58.29;94433.31;4919578;29;20959;-84
2022/08/20 01:50:54;;;;;;;9.70;8.80;;;;;;;26.14;58.39;94445.22;4919008;29;20448;-84
2022/08/20 01:53:28;;;;;;;9.33;8.40;;;;;;;26.09;58.39;94439.75;4919238;29;20463;-84
2022/08/20 01:55:56;;;;;;;9.27;8.43;;;;;;;26.08;58.64;94438.94;4919373;29;20507;-84
2022/08/20 01:58:23;;;;;;;9.87;8.50;;;;;;;26.00;58.54;94433.88;4918959;29;20950;-85
2022/08/20 02:00:50;;;;;;;10.13;9.03;;;;;;;25.96;59.13;94415.78;4918757;29;21062;-84
2022/08/20 02:03:17;;;;;;;9.57;8.67;;;;;;;25.85;58.75;94412.88;4919402;29;20452;-85
2022/08/20 02:05:44;;;;;;;10.60;9.70;;;;;;;25.71;58.98;94416.84;4918949;29;20467;-84
2022/08/20 02:08:10;;;;;;;17.23;8.13;;;;;;;25.77;60.06;94415.94;4918865;29;20459;-84
2022/08/20 02:10:37;;;;;;;12.20;10.27;;;;;;;25.74;59.90;94421.78;4900974;29;20456;-84
2022/08/20 02:13:08;;;;;;;9.43;8.63;;;;;;;25.82;59.83;94421.44;4918557;29;20864;-84
2022/08/20 02:15:35;;;;;;;10.50;8.87;;;;;;;25.81;59.55;94418.97;4918781;29;20452;-84
2022/08/20 02:18:04;;;;;;;10.00;8.60;;;;;;;25.74;59.55;94432.53;4918355;29;20496;-85
2022/08/20 02:20:31;;;;;;;14.87;9.57;;;;;;;25.66;59.91;94419.41;4919160;29;20459;-83
2022/08/20 02:23:00;;;;;;;9.20;8.30;;;;;;;25.56;59.61;94420.00;4918446;29;20499;-83
2022/08/20 02:25:29;;;;;;;12.90;8.80;;;;;;;25.43;60.71;94430.97;4918479;29;20456;-83
2022/08/20 02:27:57;;;;;;;20.30;8.60;;;;;;;25.41;61.07;94427.69;4918466;29;20448;-82
2022/08/20 02:30:29;;;;;;;10.03;9.10;;;;;;;25.40;61.60;94433.31;4918522;29;20444;-82
2022/08/20 02:32:56;;;;;;;9.70;8.83;;;;;;;25.48;60.99;94423.06;4918253;29;20935;-83
2022/08/20 02:35:24;;;;;;;12.30;9.00;;;;;;;25.42;60.61;94423.13;4918717;29;20546;-83
2022/08/20 02:37:51;;;;;;;11.73;9.23;;;;;;;25.50;61.99;94409.38;4918659;29;20496;-82
2022/08/20 02:40:20;;;;;;;13.27;9.00;;;;;;;25.60;61.42;94415.78;4918289;29;20456;-83
2022/08/20 02:42:47;;;;;;;10.03;9.13;;;;;;;25.67;60.57;94418.38;4900520;29;20459;-83
2022/08/20 02:45:16;;;;;;;13.57;9.30;;;;;;;25.63;60.23;94419.88;4918011;29;20516;-82
2022/08/20 02:47:46;;;;;;;12.97;9.13;;;;;;;25.59;60.42;94419.53;4919939;29;20955;-82
2022/08/20 02:50:16;;;;;;;11.27;9.13;;;;;;;25.51;60.56;94425.25;4919109;29;20455;-83
2022/08/20 02:52:43;;;;;;;8.30;7.50;;;;;;;25.50;60.30;94418.25;4918488;29;20459;-83
2022/08/20 02:55:12;;;;;;;12.40;8.73;;;;;;;25.41;61.26;94422.31;4918457;29;20519;-82
2022/08/20 02:57:39;;;;;;;18.97;9.13;;;;;;;25.41;61.40;94421.50;4918155;29;20492;-83
2022/08/20 03:00:10;;;;;;;9.80;8.80;;;;;;;25.32;60.99;94424.53;4918182;29;20448;-83
2022/08/20 03:02:37;;;;;;;12.80;9.23;;;;;;;25.25;62.28;94423.84;4915766;29;20918;-83
2022/08/20 03:05:06;;;;;;;12.43;8.97;;;;;;;24.97;62.29;94429.00;4917600;29;20452;-83
2022/08/20 03:07:40;;;;;;;11.80;9.20;;;;;;;24.83;62.89;94430.25;4917765;29;20462;-83
2022/08/20 03:10:08;;;;;;;11.53;10.13;;;;;;;24.83;62.99;94433.75;4917067;29;20459;-83
2022/08/20 03:12:35;;;;;;;13.87;10.03;;;;;;;24.91;64.39;94440.69;4900335;29;20459;-83
2022/08/20 03:15:01;;;;;;;12.43;9.50;;;;;;;24.89;62.95;94434.72;4917383;29;20456;-82
2022/08/20 03:17:28;;;;;;;13.07;9.03;;;;;;;24.88;63.51;94439.28;4917221;29;20492;-82
2022/08/20 03:19:55;;;;;;;15.03;10.27;;;;;;;24.97;62.81;94427.16;4918696;29;20452;-79
2022/08/20 03:22:23;;;;;;;12.57;9.30;;;;;;;25.00;63.08;94439.31;4917890;29;20460;-83
2022/08/20 03:24:50;;;;;;;10.97;9.73;;;;;;;24.96;63.70;94436.25;4905062;29;20473;-80
2022/08/20 03:27:17;;;;;;;10.60;9.33;;;;;;;25.08;63.57;94436.28;4898726;29;20472;-80
2022/08/20 03:29:43;;;;;;;10.27;9.40;;;;;;;24.90;64.36;94439.03;4898810;29;20527;-82
2022/08/20 03:32:10;;;;;;;11.80;10.60;;;;;;;24.82;65.00;94439.34;4898829;29;20456;-82
2022/08/20 03:34:37;;;;;;;11.67;10.07;;;;;;;24.84;64.96;94438.06;4898748;29;20449;-81
2022/08/20 03:37:04;;;;;;;11.17;9.13;;;;;;;24.94;64.37;94432.97;4898932;29;20494;-82
2022/08/20 03:39:32;;;;;;;12.43;10.07;;;;;;;25.05;64.80;94433.25;4898597;29;20457;-82
2022/08/20 03:41:59;;;;;;;12.57;10.03;;;;;;;25.15;64.42;94434.31;4898422;29;20464;-82
2022/08/20 03:44:26;;;;;;;13.93;9.10;;;;;;;25.27;64.54;94439.72;4898326;29;20453;-83
2022/08/20 03:46:53;;;;;;;13.73;10.90;;;;;;;25.37;64.31;94442.66;4898533;29;20461;-82
2022/08/20 03:49:20;;;;;;;14.20;10.60;;;;;;;25.54;65.48;94440.91;4898501;29;20464;-82
2022/08/20 03:51:46;;;;;;;11.80;9.70;;;;;;;25.44;64.06;94448.72;4898487;29;20444;-82
2022/08/20 03:54:13;;;;;;;13.60;9.93;;;;;;;25.47;64.04;94442.91;4898517;29;20445;-83
2022/08/20 03:56:41;;;;;;;12.00;9.30;;;;;;;25.54;63.97;94442.78;4898430;29;20457;-83
2022/08/20 03:59:08;;;;;;;11.60;10.43;;;;;;;25.42;65.97;94442.75;4880710;29;20802;-83
2022/08/20 04:01:35;;;;;;;14.03;10.33;;;;;;;25.56;66.88;94438.00;4898445;29;20903;-81
2022/08/20 04:04:02;;;;;;;13.40;10.27;;;;;;;25.41;63.98;94440.31;4898387;29;20463;-83
2022/08/20 04:06:29;;;;;;;19.43;9.83;;;;;;;25.36;65.53;94440.19;4898780;29;20456;-83
2022/08/20 04:08:56;;;;;;;17.93;10.90;;;;;;;25.64;65.47;94443.00;4898373;29;20461;-83
2022/08/20 04:11:23;;;;;;;11.77;10.57;;;;;;;25.81;64.86;94449.34;4898652;29;20928;-82
2022/08/20 04:13:51;;;;;;;12.13;10.83;;;;;;;25.93;63.58;94447.47;4898475;29;20881;-83
2022/08/20 04:16:18;;;;;;;11.20;10.00;;;;;;;26.03;64.22;94444.19;4898399;29;20453;-83
2022/08/20 04:18:46;;;;;;;14.20;10.63;;;;;;;26.15;62.94;94438.78;4898047;29;20492;-82
2022/08/20 04:21:13;;;;;;;12.70;11.60;;;;;;;26.30;61.96;94447.16;4898196;29;20461;-83
2022/08/20 04:23:40;;;;;;;11.00;9.90;;;;;;;26.46;62.17;94446.44;4901137;29;20784;-82
2022/08/20 04:26:07;;;;;;;16.90;10.70;;;;;;;26.66;60.62;94446.03;4901740;29;20924;-83
2022/08/20 04:28:34;;;;;;;21.93;10.53;;;;;;;26.80;59.72;94444.69;4901894;29;20465;-83
2022/08/20 04:31:02;;;;;;;14.80;10.37;;;;;;;27.05;60.39;94449.75;4901711;29;20453;-84
2022/08/20 04:33:31;;;;;;;17.97;10.00;;;;;;;27.38;60.13;94448.13;4884358;29;20453;-83
2022/08/20 04:36:01;;;;;;;11.33;9.00;;;;;;;27.69;59.78;94450.28;4899731;29;20496;-82
2022/08/20 04:38:31;;;;;;;15.77;10.67;;;;;;;28.04;60.75;94457.25;4901784;29;20583;-83
2022/08/20 04:40:57;;;;;;;11.60;10.40;;;;;;;28.30;58.04;94450.34;4899790;29;20448;-83
2022/08/20 04:43:26;;;;;;;11.23;10.30;;;;;;;28.46;56.43;94448.66;4902162;29;20457;-83
2022/08/20 04:45:54;;;;;;;14.67;10.87;;;;;;;28.35;57.75;94445.84;4901573;29;20212;-82
2022/08/20 04:48:23;;;;;;;11.40;9.13;;;;;;;28.58;58.15;94457.41;4901454;29;20467;-82
2022/08/20 04:50:52;;;;;;;14.73;10.07;;;;;;;28.80;56.74;94455.53;4902026;29;20480;-83
2022/08/20 04:53:22;;;;;;;9.40;8.53;;;;;;;29.06;55.69;94462.03;4901879;29;20530;-81
2022/08/20 04:55:50;;;;;;;11.93;10.57;;;;;;;29.36;55.45;94453.41;4902014;29;20567;-83
2022/08/20 04:58:19;;;;;;;10.27;9.27;;;;;;;29.59;54.51;94453.09;4901296;29;20503;-83
2022/08/20 05:00:47;;;;;;;9.60;8.57;;;;;;;29.75;55.32;94451.28;4901484;29;20795;-83
2022/08/20 05:03:14;;;;;;;19.70;9.83;;;;;;;29.86;52.73;94453.00;4901231;29;20489;-83
2022/08/20 05:05:43;;;;;;;11.17;10.20;;;;;;;29.97;53.77;94447.66;4901117;29;20467;-83
2022/08/20 05:08:11;;;;;;;15.27;10.47;;;;;;;30.15;53.14;94445.38;4900826;29;20460;-83
2022/08/20 05:10:39;;;;;;;11.23;10.03;;;;;;;30.27;52.93;94452.47;4899213;29;20524;-83
2022/08/20 05:13:08;;;;;;;12.90;10.40;;;;;;;30.31;52.91;94450.84;4901008;29;20465;-83
2022/08/20 05:15:36;;;;;;;15.30;11.27;;;;;;;30.49;52.18;94450.41;4900906;29;20963;-83
2022/08/20 05:18:04;;;;;;;9.90;8.97;;;;;;;30.54;51.24;94447.72;4901674;29;20496;-82
2022/08/20 05:20:33;;;;;;;11.27;8.70;;;;;;;30.58;50.97;94450.69;4900938;29;20460;-82
2022/08/20 05:23:02;;;;;;;11.80;10.10;;;;;;;30.67;50.03;94452.69;4901072;29;20449;-81
2022/08/20 05:25:30;;;;;;;15.10;10.20;;;;;;;30.61;49.83;94456.44;4901361;29;20453;-80
2022/08/20 05:27:59;;;;;;;10.47;9.47;;;;;;;30.61;50.29;94455.63;4901127;29;20461;-82
2022/08/20 05:30:26;;;;;;;10.67;9.53;;;;;;;30.68;50.90;94442.66;4900851;29;20459;-79
2022/08/20 05:32:54;;;;;;;12.93;9.37;;;;;;;30.69;49.00;94442.41;4900726;29;20457;-85
2022/08/20 05:35:21;;;;;;;12.80;9.30;;;;;;;30.62;49.52;94443.69;4900411;29;20544;-81
2022/08/20 05:37:48;;;;;;;11.63;9.40;;;;;;;30.65;48.29;94435.88;4884243;29;20500;-82
2022/08/20 05:40:16;;;;;;;9.60;8.80;;;;;;;30.62;48.73;94435.56;4883067;29;20948;-80
2022/08/20 05:42:43;;;;;;;11.60;10.13;;;;;;;30.66;49.74;94429.38;4900629;29;20517;-81
2022/08/20 05:45:10;;;;;;;10.83;9.40;;;;;;;30.87;49.62;94434.84;4884680;29;20496;-81
2022/08/20 05:47:39;;;;;;;10.67;9.50;;;;;;;31.00;48.67;94423.50;4920057;29;20459;-80
2022/08/20 05:50:08;;;;;;;12.47;10.20;;;;;;;31.17;50.15;94434.94;4906463;29;20790;-80
2022/08/20 05:52:36;;;;;;;11.73;10.53;;;;;;;31.30;48.50;94431.69;4932183;29;20841;-81
2022/08/20 05:55:04;;;;;;;20.20;10.27;;;;;;;31.39;46.78;94438.22;4920235;29;20476;-80
2022/08/20 05:57:33;;;;;;;11.30;10.20;;;;;;;31.14;47.24;94432.72;4919494;29;20495;-83
2022/08/20 06:00:01;;;;;;;12.83;10.03;;;;;;;31.08;47.97;94431.91;4919546;29;20435;-79
2022/08/20 06:05:12;;;;;;;12.10;9.77;;;;;;;31.57;47.89;94433.34;4919376;29;20439;-81
2022/08/20 06:07:40;;;;;;;11.53;9.80;;;;;;;31.72;48.01;94431.44;4914728;29;20452;-82
2022/08/20 06:10:09;;;;;;;11.20;10.20;;;;;;;31.95;48.01;94424.63;4919630;29;20444;-81
2022/08/20 06:12:38;;;;;;;11.00;9.93;;;;;;;32.16;47.23;94424.59;4919009;29;21339;-81
2022/08/20 06:15:05;;;;;;;15.70;11.53;;;;;;;32.18;45.89;94427.84;4921224;29;20456;-83
2022/08/20 06:17:33;;;;;;;11.87;10.90;;;;;;;32.12;47.37;94429.75;4924296;29;20503;-80
2022/08/20 06:20:02;;;;;;;24.80;11.00;;;;;;;32.33;46.39;94439.50;4930535;29;20468;-82
2022/08/20 06:22:29;;;;;;;23.30;10.00;;;;;;;32.06;45.37;94430.84;4919443;29;20455;-82
2022/08/20 06:24:56;;;;;;;13.80;10.40;;;;;;;32.21;45.60;94435.44;4917021;29;20448;-82
2022/08/20 06:27:23;;;;;;;13.10;10.77;;;;;;;32.17;44.27;94434.38;4919264;29;20452;-81
2022/08/20 06:29:52;;;;;;;9.80;8.90;;;;;;;32.20;45.30;94439.25;4919480;29;20452;-82
2022/08/20 06:32:20;;;;;;;14.60;10.40;;;;;;;32.26;44.80;94446.31;4919982;29;20444;-80
2022/08/20 06:34:48;;;;;;;12.00;8.83;;;;;;;32.22;44.58;94439.78;4919692;29;20934;-80
2022/08/20 06:37:16;;;;;;;12.07;9.83;;;;;;;32.19;45.89;94434.91;4919767;29;20451;-80
2022/08/20 06:39:43;;;;;;;14.90;9.47;;;;;;;32.39;45.26;94442.22;4919848;29;20488;-80
2022/08/20 06:42:10;;;;;;;17.43;10.80;;;;;;;32.59;43.88;94440.22;4919421;29;20799;-80
2022/08/20 06:44:37;;;;;;;36.77;13.03;;;;;;;32.76;43.96;94433.63;4917278;29;20452;-80
2022/08/20 06:47:06;;;;;;;30.83;9.90;;;;;;;32.91;44.31;94439.00;4916491;29;20444;-80
2022/08/20 06:49:35;;;;;;;14.30;9.67;;;;;;;33.09;44.81;94438.34;4918854;29;20461;-79
2022/08/20 06:52:02;;;;;;;12.13;10.93;;;;;;;32.71;42.48;94430.94;4917922;29;21001;-78
2022/08/20 06:54:29;;;;;;;11.97;8.63;;;;;;;32.24;44.13;94437.59;4917891;29;20535;-80
2022/08/20 06:56:56;;;;;;;11.70;9.43;;;;;;;32.23;45.24;94430.53;4917454;29;20459;-79
2022/08/20 06:59:23;;;;;;;10.90;9.63;;;;;;;32.04;45.15;94424.88;4916451;29;20484;-79
2022/08/20 07:01:49;;;;;;;11.87;10.40;;;;;;;32.13;44.51;94431.38;4918266;29;20787;-79
2022/08/20 07:04:18;;;;;;;12.43;9.40;;;;;;;32.06;44.65;94419.97;4917754;29;20459;-79
2022/08/20 07:06:44;;;;;;;11.47;10.33;;;;;;;31.99;44.70;94412.13;4918195;29;20448;-79
2022/08/20 07:09:11;;;;;;;11.77;10.57;;;;;;;31.84;46.79;94423.03;4917795;29;20460;-78
2022/08/20 07:11:38;;;;;;;11.73;9.60;;;;;;;31.84;45.90;94412.19;4918861;29;20452;-80
2022/08/20 07:14:04;;;;;;;11.00;10.00;;;;;;;31.38;45.98;94409.47;4918424;29;20586;-79
2022/08/20 07:16:31;;;;;;;11.47;10.27;;;;;;;31.69;46.87;94406.72;4918146;29;20456;-80
2022/08/20 07:18:58;;;;;;;10.50;9.40;;;;;;;31.91;47.75;94409.19;4918473;29;20551;-81
2022/08/20 07:21:26;;;;;;;12.50;10.37;;;;;;;32.24;47.95;94410.44;4918077;29;20463;-80
2022/08/20 07:23:53;;;;;;;11.70;10.20;;;;;;;32.42;46.14;94404.44;4884368;29;20467;-81
2022/08/20 07:26:20;;;;;;;12.97;10.47;;;;;;;32.68;47.86;94404.31;4899754;29;20440;-81
2022/08/20 07:28:47;;;;;;;11.03;9.97;;;;;;;32.83;45.05;94407.78;4917614;29;20452;-81
2022/08/20 07:33:58;;;;;;;12.63;8.90;;;;;;;32.46;42.68;94393.81;4917334;29;20454;-81
2022/08/20 07:36:26;;;;;;;10.60;9.63;;;;;;;32.68;41.80;94396.16;4917102;29;20456;-80
2022/08/20 07:38:53;;;;;;;15.37;9.97;;;;;;;32.28;44.05;94398.78;4917106;29;21085;-80
2022/08/20 07:41:21;;;;;;;11.37;9.70;;;;;;;32.42;42.85;94396.28;4917412;29;20486;-81
2022/08/20 07:43:48;;;;;;;15.87;10.13;;;;;;;32.39;43.65;94396.84;4917342;29;20452;-80
2022/08/20 07:46:17;;;;;;;12.33;9.07;;;;;;;32.34;42.64;94400.38;4916868;29;20460;-80
2022/08/20 07:48:48;;;;;;;10.70;9.70;;;;;;;32.30;44.65;94393.06;4917465;29;20834;-80
2022/08/20 07:51:16;;;;;;;16.90;10.70;;;;;;;32.50;43.87;94401.13;4916873;29;20463;-81
2022/08/20 07:53:46;;;;;;;9.70;8.87;;;;;;;32.67;43.03;94395.34;4899270;29;20539;-79
2022/08/20 07:56:16;;;;;;;11.87;10.63;;;;;;;32.83;43.03;94398.81;4883304;29;20476;-81
2022/08/20 07:58:48;;;;;;;13.37;9.70;;;;;;;33.03;41.59;94385.09;4916520;29;20495;-81
2022/08/20 08:01:16;;;;;;;9.97;8.97;;;;;;;32.95;43.07;94388.41;4884492;29;20519;-81
2022/08/20 08:03:43;;;;;;;11.33;10.33;;;;;;;32.68;42.58;94393.47;4916252;29;20456;-82
2022/08/20 08:06:10;;;;;;;10.87;9.97;;;;;;;32.87;42.86;94397.16;4916413;29;20938;-81
2022/08/20 08:08:37;;;;;;;16.83;10.23;;;;;;;33.13;43.32;94393.19;4916295;29;20463;-81
2022/08/20 08:11:07;;;;;;;11.53;10.00;;;;;;;33.41;42.40;94393.56;4916049;29;20939;-81
2022/08/20 08:13:40;;;;;;;14.20;9.67;;;;;;;33.62;41.97;94389.56;4898627;29;20448;-81
2022/08/20 08:16:08;;;;;;;14.80;10.80;;;;;;;33.70;40.81;94393.56;4916016;29;20928;-81
2022/08/20 08:18:39;;;;;;;10.70;9.60;;;;;;;33.75;41.57;94390.78;4916380;29;20913;-81
2022/08/20 08:21:08;;;;;;;12.67;9.50;;;;;;;33.90;40.85;94387.16;4916274;29;20448;-81
2022/08/20 08:23:35;;;;;;;17.03;11.33;;;;;;;33.91;41.63;94386.88;4916259;29;20452;-81
2022/08/20 08:26:02;;;;;;;11.67;10.47;;;;;;;33.94;41.81;94388.19;4916349;29;20447;-80
2022/08/20 08:28:31;;;;;;;10.63;9.53;;;;;;;33.99;41.21;94379.97;4898520;29;20966;-81
2022/08/20 08:30:58;;;;;;;10.77;9.70;;;;;;;34.14;40.35;94383.34;4915890;29;20452;-81
2022/08/20 08:33:27;;;;;;;10.10;9.30;;;;;;;34.31;40.28;94382.88;4915759;29;20463;-81
2022/08/20 08:35:54;;;;;;;11.60;10.60;;;;;;;34.48;40.51;94377.78;4916343;29;20444;-81
2022/08/20 08:38:22;;;;;;;10.63;9.73;;;;;;;34.37;39.12;94375.47;4898074;29;20491;-87
2022/08/20 08:40:50;;;;;;;11.00;10.07;;;;;;;34.42;39.73;94373.53;4916358;29;20490;-81
2022/08/20 08:43:19;;;;;;;10.00;9.10;;;;;;;34.41;39.74;94365.63;4883022;29;20478;-82
2022/08/20 08:45:54;;;;;;;15.17;9.93;;;;;;;34.47;40.97;94364.47;4916032;29;20563;-80
2022/08/20 08:48:31;;;;;;;10.00;8.97;;;;;;;34.43;39.95;94356.06;4916553;29;20538;-85
2022/08/20 08:50:59;;;;;;;10.83;9.67;;;;;;;34.39;39.49;94355.00;4917156;29;20911;-83
2022/08/20 08:53:30;;;;;;;11.67;10.20;;;;;;;34.34;40.39;94352.34;4916583;29;20448;-81
2022/08/20 08:55:58;;;;;;;15.80;9.70;;;;;;;33.54;41.09;94350.19;4917301;29;20487;-81
2022/08/20 08:58:26;;;;;;;11.40;10.27;;;;;;;33.80;41.02;94344.47;4917232;29;20499;-83
2022/08/20 09:00:55;;;;;;;10.97;9.87;;;;;;;33.92;40.88;94338.66;4917166;29;20471;-87
2022/08/20 09:03:27;;;;;;;15.23;10.07;;;;;;;33.77;40.26;94343.13;4917540;29;20463;-82
2022/08/20 09:05:58;;;;;;;13.60;10.87;;;;;;;33.87;41.31;94334.09;4916878;29;20459;-83
2022/08/20 09:08:29;;;;;;;12.80;10.90;;;;;;;33.90;41.20;94340.88;4918994;29;20499;-80
2022/08/20 09:11:01;;;;;;;9.37;8.33;;;;;;;33.99;40.40;94331.78;4927145;29;20452;-82
2022/08/20 09:13:28;;;;;;;14.30;10.67;;;;;;;33.83;41.04;94335.78;4926544;29;20834;-86
2022/08/20 09:15:56;;;;;;;11.53;9.70;;;;;;;34.01;41.63;94324.13;4925011;29;20451;-82
2022/08/20 09:18:23;;;;;;;12.33;9.90;;;;;;;33.99;41.35;94333.69;4924666;29;20452;-84
2022/08/20 09:20:50;;;;;;;10.00;9.10;;;;;;;34.08;41.37;94337.38;4926348;29;20479;-81
2022/08/20 09:23:17;;;;;;;10.47;9.57;;;;;;;33.98;40.25;94335.59;4922541;29;20456;-81
2022/08/20 09:25:46;;;;;;;11.30;9.97;;;;;;;34.11;40.37;94340.31;4919773;29;20452;-79
2022/08/20 09:28:13;;;;;;;11.20;10.10;;;;;;;34.22;39.96;94334.78;4919498;29;21018;-79
2022/08/20 09:30:39;;;;;;;11.20;9.50;;;;;;;34.29;40.81;94329.78;4919828;29;20460;-80
2022/08/20 09:33:08;;;;;;;12.40;10.00;;;;;;;34.19;39.33;94328.00;4919730;29;20474;-78
2022/08/20 09:35:34;;;;;;;12.30;10.20;;;;;;;34.23;38.56;94326.31;4920398;29;20468;-81
2022/08/20 09:38:01;;;;;;;10.73;9.73;;;;;;;33.88;39.59;94324.81;4887004;29;20456;-81
2022/08/20 09:40:28;;;;;;;11.47;10.33;;;;;;;33.72;40.59;94328.78;4920762;29;20499;-82
2022/08/20 09:42:55;;;;;;;13.97;10.47;;;;;;;33.82;41.03;94315.03;4920287;29;20456;-82
2022/08/20 09:45:22;;;;;;;14.40;11.30;;;;;;;33.94;40.42;94317.41;4921100;29;20452;-83
2022/08/20 09:47:49;;;;;;;11.40;10.30;;;;;;;33.79;40.34;94312.91;4920728;29;20471;-83
2022/08/20 09:50:17;;;;;;;10.50;9.37;;;;;;;33.84;40.58;94319.16;4920617;29;20484;-83
2022/08/20 09:52:48;;;;;;;11.60;10.17;;;;;;;33.83;41.33;94306.66;4920644;29;20460;-84
2022/08/20 09:55:20;;;;;;;11.30;9.23;;;;;;;33.88;40.38;94307.69;4920536;29;20483;-83
2022/08/20 09:57:48;;;;;;;13.10;10.87;;;;;;;33.91;40.42;94301.66;4920640;29;20463;-82
2022/08/20 10:00:15;;;;;;;11.20;10.10;;;;;;;33.94;41.10;94296.44;4919098;29;20491;-84
2022/08/20 10:02:43;;;;;;;10.60;9.70;;;;;;;33.86;40.23;94300.63;4920350;29;20451;-81
2022/08/20 10:05:10;;;;;;;12.80;9.60;;;;;;;33.52;41.29;94310.72;4920557;29;20452;-83
2022/08/20 10:07:39;;;;;;;11.47;10.40;;;;;;;33.61;41.93;94305.50;4920803;29;20975;-81
2022/08/20 10:10:09;;;;;;;12.37;10.23;;;;;;;33.57;40.98;94307.97;4920057;29;20978;-83
2022/08/20 10:12:35;;;;;;;11.13;10.00;;;;;;;33.74;40.74;94305.59;4919923;29;20991;-81
2022/08/20 10:15:02;;;;;;;10.60;9.50;;;;;;;33.84;41.33;94308.25;4919546;29;20791;-82
2022/08/20 10:17:29;;;;;;;11.00;9.90;;;;;;;33.89;41.05;94296.50;4919368;29;20463;-81
2022/08/20 10:19:56;;;;;;;14.50;9.70;;;;;;;33.85;39.93;94298.19;4918607;29;21103;-82
2022/08/20 10:22:23;;;;;;;11.63;9.40;;;;;;;33.70;41.33;94301.03;4919411;29;20507;-81
2022/08/20 10:24:51;;;;;;;10.53;9.50;;;;;;;33.55;42.17;94300.09;4919041;29;20452;-81
2022/08/20 10:27:18;;;;;;;13.93;11.27;;;;;;;33.11;42.21;94302.91;4919829;29;20936;-80
2022/08/20 10:29:44;;;;;;;11.83;10.50;;;;;;;33.04;43.12;94290.75;4919575;29;20467;-83
2022/08/20 10:32:14;;;;;;;11.33;10.43;;;;;;;33.13;42.96;94291.75;4920223;29;20452;-82
2022/08/20 10:34:43;;;;;;;13.23;11.80;;;;;;;33.20;41.72;94287.59;4920524;29;20454;-82
2022/08/20 10:37:14;;;;;;;11.50;10.40;;;;;;;33.22;41.54;94285.41;4920224;29;20459;-82
2022/08/20 10:39:40;;;;;;;13.73;9.93;;;;;;;33.33;41.27;94290.81;4918241;29;20495;-83
2022/08/20 10:42:09;;;;;;;10.63;9.53;;;;;;;33.04;40.28;94282.59;4918295;29;20456;-84
2022/08/20 10:44:35;;;;;;;10.90;9.90;;;;;;;33.25;39.34;94279.41;4918540;29;20456;-83
2022/08/20 10:47:17;;;;;;;12.50;10.50;;;;;;;33.41;38.90;94276.56;4919583;29;20460;-81
2022/08/20 10:49:44;;;;;;;11.37;9.90;;;;;;;33.49;39.27;94268.59;4918148;29;20444;-81
2022/08/20 10:52:11;;;;;;;13.33;8.97;;;;;;;33.39;40.38;94259.72;4920613;29;20467;-80
2022/08/20 10:54:40;;;;;;;10.47;9.40;;;;;;;32.99;39.71;94263.63;4920151;29;20487;-81
2022/08/20 10:57:10;;;;;;;10.83;9.17;;;;;;;33.16;41.45;94266.72;4888286;29;20456;-83
2022/08/20 10:59:40;;;;;;;10.63;9.63;;;;;;;33.23;39.94;94265.28;4918733;29;20495;-81
2022/08/20 11:02:07;;;;;;;11.90;10.60;;;;;;;33.31;40.36;94260.31;4920857;29;20475;-81
2022/08/20 11:04:35;;;;;;;10.23;9.33;;;;;;;33.40;39.55;94247.75;4918891;29;20451;-80
2022/08/20 11:07:14;;;;;;;12.00;10.80;;;;;;;33.46;39.71;94260.19;4918977;29;20789;-82
2022/08/20 11:09:41;;;;;;;11.67;9.43;;;;;;;33.58;39.45;94257.09;4919336;29;20451;-79
2022/08/20 11:12:09;;;;;;;11.13;9.60;;;;;;;33.60;38.25;94263.06;4920422;29;20612;-81
2022/08/20 11:14:36;;;;;;;14.00;10.03;;;;;;;33.58;38.46;94252.47;4902835;29;20844;-81
2022/08/20 11:17:04;;;;;;;10.90;9.97;;;;;;;33.60;38.12;94255.69;4919188;29;20463;-82
2022/08/20 11:19:31;;;;;;;11.20;10.10;;;;;;;33.58;39.29;94249.75;4919184;29;20503;-82
2022/08/20 11:21:58;;;;;;;11.97;10.90;;;;;;;33.36;38.96;94243.97;4920597;29;20507;-81
2022/08/20 11:24:25;;;;;;;10.27;9.27;;;;;;;33.16;39.71;94247.66;4919167;29;20447;-82
2022/08/20 11:26:52;;;;;;;11.67;10.47;;;;;;;33.01;40.10;94247.81;4919877;29;20962;-82
2022/08/20 11:29:23;;;;;;;12.00;9.47;;;;;;;33.06;41.66;94235.00;4901255;29;20479;-82
2022/08/20 11:31:50;;;;;;;10.77;9.83;;;;;;;32.82;39.59;94226.78;4917856;29;20456;-81
2022/08/20 11:34:17;;;;;;;10.63;9.80;;;;;;;32.63;40.04;94215.75;4917576;29;20467;-82
2022/08/20 11:36:45;;;;;;;11.27;10.37;;;;;;;32.60;40.71;94219.03;4917741;29;20459;-82